Aeroboteco Virtual Airlines! Uma nuvem a frente.



 INFORMAÇÕES METEOROLÓGICAS
METAR FOR SBBU
ADDS - METARS form results

(0300 UTC 27 May 2019)
Data provider http://aviationweather.gov/metar/data/
 
Forecast for: SBBU (BAURU , BR)
Text: TAF SBBU 262230Z 2700/2712 00000KT CAVOK TX20/2700Z TN14/2708Z RMK PEB
Forecast period: 0000 to 1200 UTC 27 May 2019
Forecast type: FROM: standard forecast or significant change
Winds: calm
Visibility: 6 or more miles 10+ km)
Ceiling: unknown
Clouds: missing
Weather: no significant weather forecast for this period

 MAPA DO AEROPORTO

 INFORMAÇÕES DA PISTA
Pista 14 Tamanho da pista 4925 ft Largura da pista 115 ft
Elevação da pista 0 ft Ranhura da pista 0 ft Proa da pista 0
Pista 32 Tamanho da pista 4925 ft Largura da pista 115 ft
Elevação da pista 0 ft Ranhura da pista 0 ft Proa da pista 0

 FREQUÊNCIAS DO AEROPORTO
Tipo AFIS Nome RDO Frequência 121.3 MHZ
Tipo APP Nome APP Frequência 121.3 MHZ
Tipo ATIS Nome ATIS Frequência 127.875 MHZ

 AUXÍLIOS DE NAVEGAÇÃO PRÓXIMOS AO AEROPORTO
Tipo NDB Nome Bauru Frequência 380 KHZ